sensor_id;sensor_type;location;lat;lon;timestamp;pressure;altitude;pressure_sealevel;temperature;humidity
77454;BME280;66538;53.150;18.160;2024-01-07T00:01:46;101820.92;;;-4.89;88.04
77454;BME280;66538;53.150;18.160;2024-01-07T00:04:15;101822.62;;;-4.90;87.88
77454;BME280;66538;53.150;18.160;2024-01-07T00:06:42;101824.37;;;-4.92;87.74
77454;BME280;66538;53.150;18.160;2024-01-07T00:09:11;101819.64;;;-4.94;87.71
77454;BME280;66538;53.150;18.160;2024-01-07T00:11:38;101825.30;;;-4.96;88.06
77454;BME280;66538;53.150;18.160;2024-01-07T00:14:05;101831.10;;;-4.97;88.18
77454;BME280;66538;53.150;18.160;2024-01-07T00:16:32;101829.64;;;-5.01;88.25
77454;BME280;66538;53.150;18.160;2024-01-07T00:18:59;101831.30;;;-5.03;87.99
77454;BME280;66538;53.150;18.160;2024-01-07T00:21:25;101835.17;;;-5.05;88.01
77454;BME280;66538;53.150;18.160;2024-01-07T00:23:52;101833.63;;;-5.09;88.71
77454;BME280;66538;53.150;18.160;2024-01-07T00:26:19;101830.63;;;-5.17;88.33
77454;BME280;66538;53.150;18.160;2024-01-07T00:28:45;101835.84;;;-5.18;88.55
77454;BME280;66538;53.150;18.160;2024-01-07T00:31:12;101844.00;;;-5.18;88.52
77454;BME280;66538;53.150;18.160;2024-01-07T00:33:39;101843.70;;;-5.23;88.77
77454;BME280;66538;53.150;18.160;2024-01-07T00:36:05;101842.20;;;-5.27;88.81
77454;BME280;66538;53.150;18.160;2024-01-07T00:38:32;101843.77;;;-5.29;88.92
77454;BME280;66538;53.150;18.160;2024-01-07T00:40:59;101844.40;;;-5.32;88.80
77454;BME280;66538;53.150;18.160;2024-01-07T00:43:25;101847.55;;;-5.32;88.89
77454;BME280;66538;53.150;18.160;2024-01-07T00:45:52;101847.61;;;-5.34;88.94
77454;BME280;66538;53.150;18.160;2024-01-07T00:48:18;101849.96;;;-5.35;89.21
77454;BME280;66538;53.150;18.160;2024-01-07T00:50:45;101847.55;;;-5.38;88.89
77454;BME280;66538;53.150;18.160;2024-01-07T00:53:12;101851.38;;;-5.39;89.08
77454;BME280;66538;53.150;18.160;2024-01-07T00:55:39;101848.15;;;-5.38;89.41
77454;BME280;66538;53.150;18.160;2024-01-07T00:58:05;101841.41;;;-5.40;89.23
77454;BME280;66538;53.150;18.160;2024-01-07T01:00:32;101840.33;;;-5.41;88.94
77454;BME280;66538;53.150;18.160;2024-01-07T01:02:59;101841.07;;;-5.42;89.04
77454;BME280;66538;53.150;18.160;2024-01-07T01:05:26;101845.55;;;-5.45;89.18
77454;BME280;66538;53.150;18.160;2024-01-07T01:07:53;101841.42;;;-5.48;89.20
77454;BME280;66538;53.150;18.160;2024-01-07T01:10:19;101842.34;;;-5.50;89.30
77454;BME280;66538;53.150;18.160;2024-01-07T01:12:46;101839.16;;;-5.52;89.33
77454;BME280;66538;53.150;18.160;2024-01-07T01:15:13;101838.39;;;-5.55;89.35
77454;BME280;66538;53.150;18.160;2024-01-07T01:17:42;101842.55;;;-5.58;89.50
77454;BME280;66538;53.150;18.160;2024-01-07T01:20:09;101843.01;;;-5.61;89.37
77454;BME280;66538;53.150;18.160;2024-01-07T01:22:36;101848.13;;;-5.65;89.50
77454;BME280;66538;53.150;18.160;2024-01-07T01:25:03;101847.06;;;-5.69;89.82
77454;BME280;66538;53.150;18.160;2024-01-07T01:27:30;101845.52;;;-5.71;90.07
77454;BME280;66538;53.150;18.160;2024-01-07T01:29:57;101847.77;;;-5.73;90.02
77454;BME280;66538;53.150;18.160;2024-01-07T01:32:23;101851.98;;;-5.76;90.24
77454;BME280;66538;53.150;18.160;2024-01-07T01:34:50;101854.61;;;-5.80;90.59
77454;BME280;66538;53.150;18.160;2024-01-07T01:37:17;101856.45;;;-5.82;90.34
77454;BME280;66538;53.150;18.160;2024-01-07T01:39:43;101859.44;;;-5.85;90.59
77454;BME280;66538;53.150;18.160;2024-01-07T01:42:10;101863.09;;;-5.88;90.42
77454;BME280;66538;53.150;18.160;2024-01-07T01:44:36;101862.66;;;-5.91;90.90
77454;BME280;66538;53.150;18.160;2024-01-07T01:47:05;101864.09;;;-5.93;91.21
77454;BME280;66538;53.150;18.160;2024-01-07T01:49:33;101870.66;;;-5.94;91.12
77454;BME280;66538;53.150;18.160;2024-01-07T01:52:02;101877.94;;;-5.96;91.31
77454;BME280;66538;53.150;18.160;2024-01-07T01:54:29;101880.11;;;-5.97;91.22
77454;BME280;66538;53.150;18.160;2024-01-07T01:56:55;101873.76;;;-6.01;91.50
77454;BME280;66538;53.150;18.160;2024-01-07T01:59:23;101873.33;;;-6.04;91.67
77454;BME280;66538;53.150;18.160;2024-01-07T02:01:50;101875.98;;;-6.05;91.32
77454;BME280;66538;53.150;18.160;2024-01-07T02:04:17;101876.08;;;-6.07;91.62
77454;BME280;66538;53.150;18.160;2024-01-07T02:06:45;101874.16;;;-6.09;91.69
77454;BME280;66538;53.150;18.160;2024-01-07T02:09:12;101870.80;;;-6.12;91.89
77454;BME280;66538;53.150;18.160;2024-01-07T02:11:39;101872.79;;;-6.14;91.85
77454;BME280;66538;53.150;18.160;2024-01-07T02:14:05;101875.73;;;-6.16;92.24
77454;BME280;66538;53.150;18.160;2024-01-07T02:16:32;101877.11;;;-6.17;91.93
77454;BME280;66538;53.150;18.160;2024-01-07T02:18:59;101874.64;;;-6.19;92.06
77454;BME280;66538;53.150;18.160;2024-01-07T02:21:25;101876.77;;;-6.21;92.11
77454;BME280;66538;53.150;18.160;2024-01-07T02:23:52;101877.81;;;-6.23;92.31
77454;BME280;66538;53.150;18.160;2024-01-07T02:26:19;101883.19;;;-6.24;92.14
77454;BME280;66538;53.150;18.160;2024-01-07T02:28:45;101876.07;;;-6.29;92.10
77454;BME280;66538;53.150;18.160;2024-01-07T02:31:12;101878.15;;;-6.31;92.38
77454;BME280;66538;53.150;18.160;2024-01-07T02:33:39;101879.77;;;-6.33;92.39
77454;BME280;66538;53.150;18.160;2024-01-07T02:36:05;101885.81;;;-6.34;92.66
77454;BME280;66538;53.150;18.160;2024-01-07T02:38:32;101893.42;;;-6.33;92.51
77454;BME280;66538;53.150;18.160;2024-01-07T02:40:58;101890.48;;;-6.37;92.75
77454;BME280;66538;53.150;18.160;2024-01-07T02:43:25;101895.73;;;-6.39;92.72
77454;BME280;66538;53.150;18.160;2024-01-07T02:45:52;101897.25;;;-6.40;93.02
77454;BME280;66538;53.150;18.160;2024-01-07T02:48:18;101899.05;;;-6.42;92.81
77454;BME280;66538;53.150;18.160;2024-01-07T02:50:45;101902.52;;;-6.44;92.91
77454;BME280;66538;53.150;18.160;2024-01-07T02:53:12;101902.38;;;-6.44;92.95
77454;BME280;66538;53.150;18.160;2024-01-07T02:55:39;101898.92;;;-6.47;92.76
77454;BME280;66538;53.150;18.160;2024-01-07T02:58:05;101899.86;;;-6.48;92.95
77454;BME280;66538;53.150;18.160;2024-01-07T03:00:32;101899.06;;;-6.46;93.04
77454;BME280;66538;53.150;18.160;2024-01-07T03:02:58;101900.31;;;-6.47;92.80
77454;BME280;66538;53.150;18.160;2024-01-07T03:05:25;101895.61;;;-6.47;93.26
77454;BME280;66538;53.150;18.160;2024-01-07T03:07:53;101892.40;;;-6.49;92.82
77454;BME280;66538;53.150;18.160;2024-01-07T03:10:20;101906.29;;;-6.49;93.14
77454;BME280;66538;53.150;18.160;2024-01-07T03:12:47;101903.21;;;-6.50;93.02
77454;BME280;66538;53.150;18.160;2024-01-07T03:15:13;101901.08;;;-6.49;93.26
77454;BME280;66538;53.150;18.160;2024-01-07T03:17:40;101909.25;;;-6.48;93.13
77454;BME280;66538;53.150;18.160;2024-01-07T03:20:07;101913.27;;;-6.46;93.02
77454;BME280;66538;53.150;18.160;2024-01-07T03:22:34;101910.15;;;-6.46;92.97
77454;BME280;66538;53.150;18.160;2024-01-07T03:25:01;101909.36;;;-6.47;92.84
77454;BME280;66538;53.150;18.160;2024-01-07T03:27:27;101909.92;;;-6.48;92.83
77454;BME280;66538;53.150;18.160;2024-01-07T03:29:54;101906.04;;;-6.48;92.91
77454;BME280;66538;53.150;18.160;2024-01-07T03:32:21;101907.20;;;-6.47;92.95
77454;BME280;66538;53.150;18.160;2024-01-07T03:34:47;101908.45;;;-6.47;93.24
77454;BME280;66538;53.150;18.160;2024-01-07T03:37:14;101908.10;;;-6.49;93.45
77454;BME280;66538;53.150;18.160;2024-01-07T03:39:41;101914.21;;;-6.47;93.51
77454;BME280;66538;53.150;18.160;2024-01-07T03:42:08;101916.11;;;-6.48;93.50
77454;BME280;66538;53.150;18.160;2024-01-07T03:44:38;101916.17;;;-6.45;93.65
77454;BME280;66538;53.150;18.160;2024-01-07T03:47:06;101919.45;;;-6.40;93.68
77454;BME280;66538;53.150;18.160;2024-01-07T03:49:32;101917.74;;;-6.41;93.63
77454;BME280;66538;53.150;18.160;2024-01-07T03:51:59;101914.45;;;-6.41;93.73
77454;BME280;66538;53.150;18.160;2024-01-07T03:54:26;101913.57;;;-6.41;93.83
77454;BME280;66538;53.150;18.160;2024-01-07T03:56:52;101915.41;;;-6.40;93.78
77454;BME280;66538;53.150;18.160;2024-01-07T03:59:19;101923.81;;;-6.40;93.87
77454;BME280;66538;53.150;18.160;2024-01-07T04:01:45;101920.64;;;-6.40;94.16
77454;BME280;66538;53.150;18.160;2024-01-07T04:04:13;101909.08;;;-6.44;93.84
77454;BME280;66538;53.150;18.160;2024-01-07T04:06:39;101924.88;;;-6.38;94.09
77454;BME280;66538;53.150;18.160;2024-01-07T04:09:06;101924.39;;;-6.36;94.06
77454;BME280;66538;53.150;18.160;2024-01-07T04:11:41;101917.59;;;-6.35;94.24
77454;BME280;66538;53.150;18.160;2024-01-07T04:14:09;101916.65;;;-6.32;93.97
77454;BME280;66538;53.150;18.160;2024-01-07T04:16:36;101915.00;;;-6.29;94.11
77454;BME280;66538;53.150;18.160;2024-01-07T04:19:02;101918.38;;;-6.26;93.60
77454;BME280;66538;53.150;18.160;2024-01-07T04:21:29;101924.07;;;-6.22;93.78
77454;BME280;66538;53.150;18.160;2024-01-07T04:23:55;101931.91;;;-6.17;93.31
77454;BME280;66538;53.150;18.160;2024-01-07T04:26:22;101931.71;;;-6.13;93.43
77454;BME280;66538;53.150;18.160;2024-01-07T04:28:48;101936.56;;;-6.10;93.08
77454;BME280;66538;53.150;18.160;2024-01-07T04:31:15;101940.85;;;-6.07;92.80
77454;BME280;66538;53.150;18.160;2024-01-07T04:33:42;101938.77;;;-6.02;92.68
77454;BME280;66538;53.150;18.160;2024-01-07T04:36:08;101942.64;;;-5.98;92.20
77454;BME280;66538;53.150;18.160;2024-01-07T04:38:36;101950.64;;;-5.95;91.93
77454;BME280;66538;53.150;18.160;2024-01-07T04:41:03;101951.92;;;-5.88;92.01
77454;BME280;66538;53.150;18.160;2024-01-07T04:43:29;101946.23;;;-5.83;92.12
77454;BME280;66538;53.150;18.160;2024-01-07T04:45:56;101946.77;;;-5.78;92.02
77454;BME280;66538;53.150;18.160;2024-01-07T04:48:23;101945.67;;;-5.73;91.98
77454;BME280;66538;53.150;18.160;2024-01-07T04:50:49;101948.13;;;-5.69;91.38
77454;BME280;66538;53.150;18.160;2024-01-07T04:53:17;101954.75;;;-5.62;90.96
77454;BME280;66538;53.150;18.160;2024-01-07T04:55:43;101958.20;;;-5.58;90.49
77454;BME280;66538;53.150;18.160;2024-01-07T04:58:10;101955.89;;;-5.54;90.60
77454;BME280;66538;53.150;18.160;2024-01-07T05:00:36;101948.16;;;-5.48;90.58
77454;BME280;66538;53.150;18.160;2024-01-07T05:03:03;101946.09;;;-5.45;90.10
77454;BME280;66538;53.150;18.160;2024-01-07T05:05:30;101945.88;;;-5.42;89.58
77454;BME280;66538;53.150;18.160;2024-01-07T05:07:56;101948.17;;;-5.40;89.35
77454;BME280;66538;53.150;18.160;2024-01-07T05:10:25;101955.73;;;-5.38;89.87
77454;BME280;66538;53.150;18.160;2024-01-07T05:12:52;101961.59;;;-5.37;89.08
77454;BME280;66538;53.150;18.160;2024-01-07T05:15:18;101959.65;;;-5.35;88.03
77454;BME280;66538;53.150;18.160;2024-01-07T05:17:45;101954.83;;;-5.34;88.61
77454;BME280;66538;53.150;18.160;2024-01-07T05:20:11;101959.34;;;-5.33;88.38
77454;BME280;66538;53.150;18.160;2024-01-07T05:22:38;101963.15;;;-5.32;88.45
77454;BME280;66538;53.150;18.160;2024-01-07T05:25:05;101970.56;;;-5.33;88.16
77454;BME280;66538;53.150;18.160;2024-01-07T05:27:31;101973.52;;;-5.32;88.20
77454;BME280;66538;53.150;18.160;2024-01-07T05:29:58;101968.77;;;-5.32;88.06
77454;BME280;66538;53.150;18.160;2024-01-07T05:32:24;101972.91;;;-5.29;88.35
77454;BME280;66538;53.150;18.160;2024-01-07T05:34:51;101969.54;;;-5.33;88.36
77454;BME280;66538;53.150;18.160;2024-01-07T05:37:18;101975.46;;;-5.34;87.85
77454;BME280;66538;53.150;18.160;2024-01-07T05:39:44;101975.13;;;-5.34;87.87
77454;BME280;66538;53.150;18.160;2024-01-07T05:42:11;101975.83;;;-5.32;88.39
77454;BME280;66538;53.150;18.160;2024-01-07T05:44:37;101976.98;;;-5.29;88.24
77454;BME280;66538;53.150;18.160;2024-01-07T05:47:04;101982.41;;;-5.29;87.75
77454;BME280;66538;53.150;18.160;2024-01-07T05:49:31;101979.44;;;-5.31;87.88
77454;BME280;66538;53.150;18.160;2024-01-07T05:51:57;101982.89;;;-5.32;87.58
77454;BME280;66538;53.150;18.160;2024-01-07T05:54:24;101982.17;;;-5.34;86.82
77454;BME280;66538;53.150;18.160;2024-01-07T05:56:51;101985.50;;;-5.38;86.78
77454;BME280;66538;53.150;18.160;2024-01-07T05:59:17;101985.95;;;-5.43;86.74
77454;BME280;66538;53.150;18.160;2024-01-07T06:01:44;101989.56;;;-5.50;86.69
77454;BME280;66538;53.150;18.160;2024-01-07T06:04:10;101990.34;;;-5.58;87.03
77454;BME280;66538;53.150;18.160;2024-01-07T06:06:37;101986.15;;;-5.65;87.37
77454;BME280;66538;53.150;18.160;2024-01-07T06:09:03;101988.34;;;-5.74;87.36
77454;BME280;66538;53.150;18.160;2024-01-07T06:11:30;101993.81;;;-5.76;87.48
77454;BME280;66538;53.150;18.160;2024-01-07T06:13:57;101991.55;;;-5.80;88.01
77454;BME280;66538;53.150;18.160;2024-01-07T06:16:24;101988.85;;;-5.87;87.93
77454;BME280;66538;53.150;18.160;2024-01-07T06:18:51;101986.99;;;-5.92;88.21
77454;BME280;66538;53.150;18.160;2024-01-07T06:21:17;101987.80;;;-5.93;88.44
77454;BME280;66538;53.150;18.160;2024-01-07T06:23:44;101985.95;;;-5.96;88.24
77454;BME280;66538;53.150;18.160;2024-01-07T06:26:11;101988.27;;;-6.03;88.57
77454;BME280;66538;53.150;18.160;2024-01-07T06:28:37;101989.13;;;-6.08;88.75
77454;BME280;66538;53.150;18.160;2024-01-07T06:31:04;101989.98;;;-6.10;89.00
77454;BME280;66538;53.150;18.160;2024-01-07T06:33:31;101991.70;;;-6.14;89.18
77454;BME280;66538;53.150;18.160;2024-01-07T06:35:58;101991.83;;;-6.18;89.22
77454;BME280;66538;53.150;18.160;2024-01-07T06:38:24;101997.43;;;-6.15;89.50
77454;BME280;66538;53.150;18.160;2024-01-07T06:40:51;101992.11;;;-6.21;89.67
77454;BME280;66538;53.150;18.160;2024-01-07T06:43:17;101991.09;;;-6.23;90.14
77454;BME280;66538;53.150;18.160;2024-01-07T06:45:45;101986.92;;;-6.26;89.92
77454;BME280;66538;53.150;18.160;2024-01-07T06:48:11;101993.34;;;-6.29;90.31
77454;BME280;66538;53.150;18.160;2024-01-07T06:50:38;102002.77;;;-6.30;90.26
77454;BME280;66538;53.150;18.160;2024-01-07T06:53:05;102002.85;;;-6.33;90.56
77454;BME280;66538;53.150;18.160;2024-01-07T06:55:31;102004.08;;;-6.41;90.23
77454;BME280;66538;53.150;18.160;2024-01-07T06:57:58;102007.41;;;-6.41;90.04
77454;BME280;66538;53.150;18.160;2024-01-07T07:00:24;102008.27;;;-6.49;90.20
77454;BME280;66538;53.150;18.160;2024-01-07T07:02:51;102011.75;;;-6.48;89.91
77454;BME280;66538;53.150;18.160;2024-01-07T07:05:18;102019.33;;;-6.51;89.53
77454;BME280;66538;53.150;18.160;2024-01-07T07:07:44;102014.23;;;-6.55;89.10
77454;BME280;66538;53.150;18.160;2024-01-07T07:10:11;102017.21;;;-6.59;88.87
77454;BME280;66538;53.150;18.160;2024-01-07T07:12:38;102025.33;;;-6.61;89.13
77454;BME280;66538;53.150;18.160;2024-01-07T07:15:05;102031.05;;;-6.60;88.87
77454;BME280;66538;53.150;18.160;2024-01-07T07:17:32;102034.90;;;-6.62;88.68
77454;BME280;66538;53.150;18.160;2024-01-07T07:19:58;102035.68;;;-6.63;88.56
77454;BME280;66538;53.150;18.160;2024-01-07T07:22:25;102038.23;;;-6.66;88.50
77454;BME280;66538;53.150;18.160;2024-01-07T07:24:52;102049.07;;;-6.67;88.57
77454;BME280;66538;53.150;18.160;2024-01-07T07:27:18;102049.95;;;-6.69;88.42
77454;BME280;66538;53.150;18.160;2024-01-07T07:29:45;102047.96;;;-6.75;88.64
77454;BME280;66538;53.150;18.160;2024-01-07T07:32:11;102050.65;;;-6.80;88.71
77454;BME280;66538;53.150;18.160;2024-01-07T07:34:38;102053.06;;;-6.77;87.96
77454;BME280;66538;53.150;18.160;2024-01-07T07:37:04;102053.02;;;-6.77;87.57
77454;BME280;66538;53.150;18.160;2024-01-07T07:39:31;102053.27;;;-6.79;87.30
77454;BME280;66538;53.150;18.160;2024-01-07T07:41:58;102054.47;;;-6.81;87.53
77454;BME280;66538;53.150;18.160;2024-01-07T07:44:27;102053.29;;;-6.91;87.36
77454;BME280;66538;53.150;18.160;2024-01-07T07:46:54;102063.60;;;-6.88;87.46
77454;BME280;66538;53.150;18.160;2024-01-07T07:49:20;102062.75;;;-6.84;87.26
77454;BME280;66538;53.150;18.160;2024-01-07T07:51:47;102060.38;;;-6.85;87.08
77454;BME280;66538;53.150;18.160;2024-01-07T07:54:13;102064.44;;;-6.83;87.10
77454;BME280;66538;53.150;18.160;2024-01-07T07:56:40;102068.30;;;-6.83;86.35
77454;BME280;66538;53.150;18.160;2024-01-07T07:59:06;102077.21;;;-6.80;86.26
77454;BME280;66538;53.150;18.160;2024-01-07T08:01:35;102079.52;;;-6.78;86.05
77454;BME280;66538;53.150;18.160;2024-01-07T08:04:01;102079.13;;;-6.77;85.85
77454;BME280;66538;53.150;18.160;2024-01-07T08:06:29;102083.49;;;-6.77;85.59
77454;BME280;66538;53.150;18.160;2024-01-07T08:08:55;102090.98;;;-6.78;85.19
77454;BME280;66538;53.150;18.160;2024-01-07T08:11:22;102090.45;;;-6.78;85.20
77454;BME280;66538;53.150;18.160;2024-01-07T08:13:48;102090.92;;;-6.77;84.65
77454;BME280;66538;53.150;18.160;2024-01-07T08:16:15;102092.20;;;-6.76;84.26
77454;BME280;66538;53.150;18.160;2024-01-07T08:18:42;102089.77;;;-6.74;84.27
77454;BME280;66538;53.150;18.160;2024-01-07T08:21:08;102089.90;;;-6.75;83.01
77454;BME280;66538;53.150;18.160;2024-01-07T08:23:35;102091.94;;;-6.77;83.34
77454;BME280;66538;53.150;18.160;2024-01-07T08:26:02;102096.84;;;-6.77;82.83
77454;BME280;66538;53.150;18.160;2024-01-07T08:28:28;102103.90;;;-6.79;82.84
77454;BME280;66538;53.150;18.160;2024-01-07T08:30:55;102105.11;;;-6.81;82.26
77454;BME280;66538;53.150;18.160;2024-01-07T08:33:22;102112.53;;;-6.81;81.88
77454;BME280;66538;53.150;18.160;2024-01-07T08:35:49;102112.56;;;-6.84;81.75
77454;BME280;66538;53.150;18.160;2024-01-07T08:38:15;102110.60;;;-6.81;82.15
77454;BME280;66538;53.150;18.160;2024-01-07T08:40:42;102117.31;;;-6.80;81.68
77454;BME280;66538;53.150;18.160;2024-01-07T08:43:08;102113.95;;;-6.79;81.68
77454;BME280;66538;53.150;18.160;2024-01-07T08:45:35;102115.19;;;-6.79;81.30
77454;BME280;66538;53.150;18.160;2024-01-07T08:48:02;102114.01;;;-6.80;81.62
77454;BME280;66538;53.150;18.160;2024-01-07T08:50:28;102114.18;;;-6.82;81.19
77454;BME280;66538;53.150;18.160;2024-01-07T08:52:56;102114.53;;;-6.82;81.83
77454;BME280;66538;53.150;18.160;2024-01-07T08:55:23;102113.70;;;-6.83;81.96
77454;BME280;66538;53.150;18.160;2024-01-07T08:57:49;102115.45;;;-6.80;81.59
77454;BME280;66538;53.150;18.160;2024-01-07T09:00:16;102117.45;;;-6.79;82.15
77454;BME280;66538;53.150;18.160;2024-01-07T09:02:43;102120.46;;;-6.79;82.12
77454;BME280;66538;53.150;18.160;2024-01-07T09:05:10;102120.56;;;-6.80;82.29
77454;BME280;66538;53.150;18.160;2024-01-07T09:07:38;102124.73;;;-6.73;82.43
77454;BME280;66538;53.150;18.160;2024-01-07T09:10:05;102123.04;;;-6.74;82.31
77454;BME280;66538;53.150;18.160;2024-01-07T09:12:37;102127.74;;;-6.69;82.06
77454;BME280;66538;53.150;18.160;2024-01-07T09:15:05;102132.16;;;-6.65;82.83
77454;BME280;66538;53.150;18.160;2024-01-07T09:17:35;102134.73;;;-6.62;82.31
77454;BME280;66538;53.150;18.160;2024-01-07T09:20:04;102141.77;;;-6.58;81.70
77454;BME280;66538;53.150;18.160;2024-01-07T09:22:34;102142.20;;;-6.57;81.96
77454;BME280;66538;53.150;18.160;2024-01-07T09:25:05;102137.36;;;-6.58;81.82
77454;BME280;66538;53.150;18.160;2024-01-07T09:27:33;102147.52;;;-6.51;81.44
77454;BME280;66538;53.150;18.160;2024-01-07T09:30:00;102143.13;;;-6.55;81.52
77454;BME280;66538;53.150;18.160;2024-01-07T09:32:27;102150.87;;;-6.51;81.80
77454;BME280;66538;53.150;18.160;2024-01-07T09:34:54;102148.55;;;-6.44;82.09
77454;BME280;66538;53.150;18.160;2024-01-07T09:37:20;102157.15;;;-6.37;81.73
77454;BME280;66538;53.150;18.160;2024-01-07T09:39:47;102154.56;;;-6.36;81.05
77454;BME280;66538;53.150;18.160;2024-01-07T09:42:15;102158.47;;;-6.32;80.71
77454;BME280;66538;53.150;18.160;2024-01-07T09:44:43;102153.67;;;-6.30;81.04
77454;BME280;66538;53.150;18.160;2024-01-07T09:47:11;102154.79;;;-6.28;80.72
77454;BME280;66538;53.150;18.160;2024-01-07T09:49:39;102153.02;;;-6.28;79.78
77454;BME280;66538;53.150;18.160;2024-01-07T09:52:07;102152.15;;;-6.33;80.31
77454;BME280;66538;53.150;18.160;2024-01-07T09:54:36;102153.94;;;-6.33;80.52
77454;BME280;66538;53.150;18.160;2024-01-07T09:57:06;102155.84;;;-6.30;80.52
77454;BME280;66538;53.150;18.160;2024-01-07T09:59:36;102148.29;;;-6.30;80.65
77454;BME280;66538;53.150;18.160;2024-01-07T10:02:03;102145.20;;;-6.29;80.87
77454;BME280;66538;53.150;18.160;2024-01-07T10:04:30;102141.30;;;-6.25;81.26
77454;BME280;66538;53.150;18.160;2024-01-07T10:06:57;102136.40;;;-6.21;80.91
77454;BME280;66538;53.150;18.160;2024-01-07T10:09:28;102139.89;;;-6.21;80.22
77454;BME280;66538;53.150;18.160;2024-01-07T10:11:55;102137.64;;;-6.23;80.54
77454;BME280;66538;53.150;18.160;2024-01-07T10:14:22;102133.51;;;-6.25;80.90
77454;BME280;66538;53.150;18.160;2024-01-07T10:16:50;102133.77;;;-6.26;80.89
77454;BME280;66538;53.150;18.160;2024-01-07T10:19:21;102130.92;;;-6.25;79.75
77454;BME280;66538;53.150;18.160;2024-01-07T10:22:02;102134.86;;;-6.26;80.03
77454;BME280;66538;53.150;18.160;2024-01-07T10:24:35;102133.54;;;-6.23;79.02
77454;BME280;66538;53.150;18.160;2024-01-07T10:27:03;102127.05;;;-6.27;79.37
77454;BME280;66538;53.150;18.160;2024-01-07T10:29:30;102130.00;;;-6.18;78.90
77454;BME280;66538;53.150;18.160;2024-01-07T10:32:00;102127.48;;;-6.16;78.78
77454;BME280;66538;53.150;18.160;2024-01-07T10:34:32;102125.23;;;-6.16;79.13
77454;BME280;66538;53.150;18.160;2024-01-07T10:37:01;102125.70;;;-6.04;79.33
77454;BME280;66538;53.150;18.160;2024-01-07T10:39:28;102127.09;;;-6.02;77.93
77454;BME280;66538;53.150;18.160;2024-01-07T10:41:55;102121.14;;;-6.04;77.69
77454;BME280;66538;53.150;18.160;2024-01-07T10:44:26;102123.19;;;-6.08;78.19
77454;BME280;66538;53.150;18.160;2024-01-07T10:46:54;102121.35;;;-6.12;76.92
77454;BME280;66538;53.150;18.160;2024-01-07T10:49:24;102118.84;;;-6.22;76.09
77454;BME280;66538;53.150;18.160;2024-01-07T10:52:04;102121.34;;;-6.26;76.27
77454;BME280;66538;53.150;18.160;2024-01-07T10:54:32;102123.46;;;-6.26;77.88
77454;BME280;66538;53.150;18.160;2024-01-07T10:57:15;102127.85;;;-6.24;76.75
77454;BME280;66538;53.150;18.160;2024-01-07T10:59:50;102127.09;;;-6.25;77.31
77454;BME280;66538;53.150;18.160;2024-01-07T11:02:17;102131.93;;;-6.24;76.77
77454;BME280;66538;53.150;18.160;2024-01-07T11:05:11;102131.20;;;-6.24;76.95
77454;BME280;66538;53.150;18.160;2024-01-07T11:07:46;102136.08;;;-6.21;76.46
77454;BME280;66538;53.150;18.160;2024-01-07T11:10:19;102137.16;;;-6.24;77.07
77454;BME280;66538;53.150;18.160;2024-01-07T11:12:56;102136.62;;;-6.19;77.12
77454;BME280;66538;53.150;18.160;2024-01-07T11:16:03;102137.45;;;-6.17;76.78
77454;BME280;66538;53.150;18.160;2024-01-07T11:18:31;102135.86;;;-6.14;76.20
77454;BME280;66538;53.150;18.160;2024-01-07T11:21:00;102134.15;;;-6.15;75.90
77454;BME280;66538;53.150;18.160;2024-01-07T11:23:34;102131.63;;;-6.17;75.56
77454;BME280;66538;53.150;18.160;2024-01-07T11:26:04;102130.04;;;-6.19;75.80
77454;BME280;66538;53.150;18.160;2024-01-07T11:31:16;102125.09;;;-6.25;75.93
77454;BME280;66538;53.150;18.160;2024-01-07T11:33:47;102130.23;;;-6.29;75.69
77454;BME280;66538;53.150;18.160;2024-01-07T11:36:17;102126.70;;;-6.34;75.42
77454;BME280;66538;53.150;18.160;2024-01-07T11:38:45;102128.25;;;-6.35;75.97
77454;BME280;66538;53.150;18.160;2024-01-07T11:41:12;102125.46;;;-6.33;75.83
77454;BME280;66538;53.150;18.160;2024-01-07T11:43:59;102119.23;;;-6.28;76.47
77454;BME280;66538;53.150;18.160;2024-01-07T11:46:27;102118.13;;;-6.26;75.86
77454;BME280;66538;53.150;18.160;2024-01-07T11:48:56;102124.02;;;-6.23;76.75
77454;BME280;66538;53.150;18.160;2024-01-07T11:51:27;102129.03;;;-6.15;75.85
77454;BME280;66538;53.150;18.160;2024-01-07T11:53:54;102130.82;;;-6.11;76.10
77454;BME280;66538;53.150;18.160;2024-01-07T11:56:21;102127.30;;;-6.07;75.40
77454;BME280;66538;53.150;18.160;2024-01-07T11:58:47;102126.43;;;-6.09;74.50
77454;BME280;66538;53.150;18.160;2024-01-07T12:01:15;102120.88;;;-6.12;74.94
77454;BME280;66538;53.150;18.160;2024-01-07T12:03:46;102121.28;;;-6.09;75.63
77454;BME280;66538;53.150;18.160;2024-01-07T12:06:13;102118.02;;;-6.03;75.29
77454;BME280;66538;53.150;18.160;2024-01-07T12:08:41;102117.41;;;-6.02;74.62
77454;BME280;66538;53.150;18.160;2024-01-07T12:11:08;102119.33;;;-6.00;75.13
77454;BME280;66538;53.150;18.160;2024-01-07T12:13:35;102120.00;;;-6.00;74.93
77454;BME280;66538;53.150;18.160;2024-01-07T12:16:05;102121.71;;;-5.97;74.88
77454;BME280;66538;53.150;18.160;2024-01-07T12:18:32;102121.30;;;-5.88;75.13
77454;BME280;66538;53.150;18.160;2024-01-07T12:20:59;102123.31;;;-5.79;74.04
77454;BME280;66538;53.150;18.160;2024-01-07T12:23:26;102121.80;;;-5.74;74.67
77454;BME280;66538;53.150;18.160;2024-01-07T12:25:54;102125.14;;;-5.67;74.42
77454;BME280;66538;53.150;18.160;2024-01-07T12:28:22;102124.75;;;-5.67;73.51
77454;BME280;66538;53.150;18.160;2024-01-07T12:30:49;102127.16;;;-5.66;73.75
77454;BME280;66538;53.150;18.160;2024-01-07T12:33:18;102120.42;;;-5.68;73.50
77454;BME280;66538;53.150;18.160;2024-01-07T12:35:46;102116.46;;;-5.69;73.16
77454;BME280;66538;53.150;18.160;2024-01-07T12:38:14;102118.27;;;-5.75;73.16
77454;BME280;66538;53.150;18.160;2024-01-07T12:40:41;102124.94;;;-5.79;73.47
77454;BME280;66538;53.150;18.160;2024-01-07T12:43:08;102127.02;;;-5.77;74.14
77454;BME280;66538;53.150;18.160;2024-01-07T12:45:34;102124.34;;;-5.74;73.92